Aérodrome :
LOGIN :

S'inscrire | Disclaimer

   EN    FR    IT 

 










Légende :    VFR   VFR Marginal   IFR   IFR Intensif   IFR Très Intensif
Visi : 
Plafond : 
>= 8 km
>= 3000ft
5 à 8 km
1000 à 3000 ft
1500m à 5 km
500 à 1000 ft
800 à 1500m
200 à 500 ft
< 800m
< 200 ft
Symboles :   Orages  Brouillard  Fortes neiges  Fortes précipitations  Vent > 20 kt
SIGMETs :   Divers  Orages  Givrage  Turbulence  Onde Orograph.  Cendres Volcan.







- Altitude de l'aérodrome : 102 ft
- Code IATA : KEL


EDHK - Holtenau

DERNIER METAR :
  • 161420Z 29015KT CAVOK 16/06 Q1016

METARs EXPIRÉS :
  • 161350Z 29014KT CAVOK 16/06 Q1016
  • 161320Z 31012KT 270V330 9999 FEW042 15/06 Q1017
  • 161250Z 30013KT 9999 SCT041 16/07 Q1017
  • 161220Z 31013KT 280V340 9999 SCT043 15/06 Q1017
  • 161150Z 29015KT 9999 SCT039 16/06 Q1017

TAF TAF EDHK
Valide du 16 à 15h jusqu'au 16 à 18h UTC


161400Z 1615/1618 28012KT 9999 FEW040
BECMG 1617/1618 27007KT
Pas de NOTAMs connus pour ce terrain.



MET'MAP, la Météo Aéronautique d'un coup d'oeil ! - Copyright ORBIFLY Décembre 2007 - Disclaimer

ORBIFLY MET'MAP TEAM :

Programmation & Développement : Alexandra Zaïnal
Conception & Développement : Baudouin d'Aumeries
Co-Programmation & Développement : Marc-Olivier Méhu
Soutien technique & logistique : Manuel Goepfert

Contact : metmap@orbifly.com




SOURCES & CREDITS :

   NOAA